Time;durP1;ratioP1;P1;durP2;ratioP2;P2;SDS_P1;SDS_P2;PMS_P1;PMS_P2;Temp;Humidity;BMP_temperature;BMP_pressure;BME280_temperature;BME280_humidity;BME280_pressure;Samples;Min_cycle;Max_cycle;Signal;HPM_P1;HPM_P2
2022/09/05 00:01:07;;;;;;;10.90;4.60;;;19.10;99.90;;;;;;5012462;28;20454;-65
2022/09/05 00:03:48;;;;;;;16.43;5.50;;;19.10;99.90;;;;;;5012445;28;20797;-67
2022/09/05 00:06:15;;;;;;;11.27;4.30;;;19.10;99.90;;;;;;5011516;28;20446;-63
2022/09/05 00:09:14;;;;;;;5.70;4.40;;;19.10;99.90;;;;;;5011862;28;20546;-65
2022/09/05 00:11:48;;;;;;;5.73;4.47;;;19.10;99.90;;;;;;5012128;28;20407;-63
2022/09/05 00:14:29;;;;;;;6.47;5.13;;;19.10;99.90;;;;;;5012020;28;20766;-65
2022/09/05 00:17:19;;;;;;;5.97;4.60;;;19.10;99.90;;;;;;5011974;28;20771;-65
2022/09/05 00:19:45;;;;;;;10.70;5.40;;;19.10;99.90;;;;;;5011878;28;20559;-64
2022/09/05 00:22:28;;;;;;;7.43;4.40;;;19.00;99.90;;;;;;5012109;28;20979;-64
2022/09/05 00:25:06;;;;;;;8.43;5.03;;;19.00;99.90;;;;;;5012257;28;20192;-63
2022/09/05 00:27:45;;;;;;;8.00;4.80;;;19.00;98.10;;;;;;5011838;28;20502;-64
2022/09/05 00:30:21;;;;;;;8.60;3.70;;;19.00;99.90;;;;;;5011627;28;20454;-63
2022/09/05 00:33:41;;;;;;;9.60;4.80;;;19.00;99.90;;;;;;5011789;28;20832;-62
2022/09/05 00:36:21;;;;;;;7.77;4.53;;;19.10;94.60;;;;;;4970332;28;20417;-63
2022/09/05 00:39:13;;;;;;;5.17;4.60;;;18.90;99.90;;;;;;5003956;28;21418;-63
2022/09/05 00:41:40;;;;;;;9.27;4.57;;;18.80;99.90;;;;;;5011873;28;20435;-61
2022/09/05 00:44:06;;;;;;;5.63;3.50;;;18.70;99.90;;;;;;5011565;28;20593;-66
2022/09/05 00:46:37;;;;;;;5.70;4.13;;;18.60;99.90;;;;;;5011977;28;20430;-65
2022/09/05 00:49:25;;;;;;;4.60;4.20;;;18.60;99.90;;;;;;5011250;28;20509;-67
2022/09/05 00:52:00;;;;;;;5.97;4.03;;;18.60;1.00;;;;;;5011585;28;20407;-66
2022/09/05 00:54:40;;;;;;;13.97;4.53;;;18.60;99.90;;;;;;5011465;28;20446;-67
2022/09/05 00:57:41;;;;;;;11.00;4.20;;;18.60;99.90;;;;;;5011221;28;20402;-63
2022/09/05 01:00:11;;;;;;;20.77;5.20;;;18.50;99.90;;;;;;5010118;28;20800;-66
2022/09/05 01:03:08;;;;;;;7.73;4.40;;;18.70;99.90;;;;;;5011346;28;20408;-67
2022/09/05 01:05:46;;;;;;;10.87;4.70;;;18.70;99.90;;;;;;5011380;28;20449;-67
2022/09/05 01:08:30;;;;;;;7.90;4.90;;;18.70;99.90;;;;;;5011041;28;20973;-67
2022/09/05 01:11:18;;;;;;;4.10;3.70;;;18.70;99.90;;;;;;5011414;28;20409;-66
2022/09/05 01:13:53;;;;;;;10.63;5.07;;;18.70;99.90;;;;;;5011022;28;20446;-67
2022/09/05 01:16:44;;;;;;;8.07;3.97;;;18.80;99.90;;;;;;5011002;28;20394;-67
2022/09/05 01:20:07;;;;;;;6.20;4.47;;;18.70;99.90;;;;;;5010820;28;20399;-67
2022/09/05 01:22:53;;;;;;;6.60;4.20;;;18.60;99.90;;;;;;4969541;28;20448;-66
2022/09/05 01:25:46;;;;;;;5.10;3.97;;;18.60;99.90;;;;;;5011203;28;20767;-67
2022/09/05 01:28:12;;;;;;;7.03;4.03;;;18.70;99.90;;;;;;5010675;28;20403;-66
2022/09/05 01:31:01;;;;;;;16.57;4.87;;;18.70;99.90;;;;;;5011103;28;20453;-65
2022/09/05 01:33:52;;;;;;;18.43;7.80;;;18.70;99.90;;;;;;5010825;28;20200;-68
2022/09/05 01:36:39;;;;;;;29.10;6.40;;;18.70;99.90;;;;;;5010792;28;20486;-66
2022/09/05 01:39:18;;;;;;;17.50;5.63;;;18.70;99.90;;;;;;5010926;28;20407;-65
2022/09/05 01:41:52;;;;;;;13.10;5.27;;;18.60;99.90;;;;;;5011057;28;20407;-63
2022/09/05 01:44:46;;;;;;;13.63;4.63;;;18.50;99.90;;;;;;5011091;28;20418;-67
2022/09/05 01:47:20;;;;;;;9.10;5.37;;;18.50;99.90;;;;;;5010834;28;20399;-67
2022/09/05 01:50:11;;;;;;;4.17;3.70;;;18.40;1.00;;;;;;5010599;28;20464;-64
2022/09/05 01:52:37;;;;;;;7.20;4.10;;;18.30;1.00;;;;;;5010631;28;20431;-67
2022/09/05 01:55:28;;;;;;;4.33;3.93;;;18.30;1.00;;;;;;5010934;28;20854;-67
2022/09/05 01:58:14;;;;;;;6.30;4.77;;;18.40;1.00;;;;;;5010872;28;20562;-67
2022/09/05 02:01:13;;;;;;;8.00;4.83;;;18.40;1.00;;;;;;5010957;28;20490;-67
2022/09/05 02:03:51;;;;;;;18.70;4.90;;;18.40;99.90;;;;;;5007134;28;20462;-66
2022/09/05 02:06:16;;;;;;;20.67;5.17;;;18.40;99.90;;;;;;5010645;28;20398;-66
2022/09/05 02:08:48;;;;;;;16.50;5.33;;;18.40;1.00;;;;;;5010401;28;20466;-64
2022/09/05 02:11:15;;;;;;;5.60;3.90;;;18.40;99.90;;;;;;5009642;28;20183;-64
2022/09/05 02:13:46;;;;;;;13.50;4.57;;;18.30;1.00;;;;;;5010519;28;20430;-64
2022/09/05 02:16:44;;;;;;;8.67;4.07;;;18.20;1.00;;;;;;5010555;28;20769;-58
2022/09/05 02:19:36;;;;;;;8.73;4.80;;;18.30;1.00;;;;;;5010298;28;20408;-63
2022/09/05 02:22:13;;;;;;;6.80;4.73;;;18.20;1.00;;;;;;5006979;28;20459;-61
2022/09/05 02:24:41;;;;;;;7.13;4.80;;;18.20;1.00;;;;;;5010489;28;20438;-59
2022/09/05 02:27:16;;;;;;;6.37;5.23;;;18.20;1.00;;;;;;5010243;28;20407;-63
2022/09/05 02:30:07;;;;;;;4.37;3.97;;;18.10;1.00;;;;;;5014107;28;20454;-61
2022/09/05 02:32:54;;;;;;;9.93;3.73;;;18.00;1.00;;;;;;5014029;28;20414;-62
2022/09/05 02:35:26;;;;;;;4.27;3.83;;;18.10;1.00;;;;;;5014673;28;20498;-66
2022/09/05 02:37:56;;;;;;;8.17;4.87;;;18.10;1.00;;;;;;5014028;28;20490;-67
2022/09/05 02:40:36;;;;;;;9.07;4.37;;;17.90;1.00;;;;;;5012589;28;20403;-65
2022/09/05 02:43:21;;;;;;;4.73;4.20;;;17.80;1.00;;;;;;5014273;28;20414;-65
2022/09/05 02:45:50;;;;;;;6.53;4.50;;;17.70;1.00;;;;;;5013843;28;20486;-64
2022/09/05 02:48:30;;;;;;;7.33;4.20;;;17.90;1.00;;;;;;5013284;28;20442;-65
2022/09/05 02:51:13;;;;;;;4.67;3.77;;;17.90;1.00;;;;;;5013739;28;20403;-65
2022/09/05 02:53:43;;;;;;;7.93;5.00;;;17.80;1.00;;;;;;5013600;28;20415;-66
2022/09/05 02:56:18;;;;;;;8.20;6.50;;;17.70;1.00;;;;;;5013742;28;20897;-66
2022/09/05 02:59:10;;;;;;;6.70;3.80;;;17.60;99.90;;;;;;5013220;28;20494;-65
2022/09/05 03:02:03;;;;;;;18.20;5.10;;;17.60;99.90;;;;;;4997767;28;20987;-67
2022/09/05 03:04:28;;;;;;;14.20;4.40;;;17.50;99.90;;;;;;5013366;28;20789;-67
2022/09/05 03:07:11;;;;;;;20.70;6.40;;;17.60;99.90;;;;;;5013235;28;20404;-65
2022/09/05 03:09:50;;;;;;;9.67;5.20;;;17.60;99.90;;;;;;5013183;28;20217;-67
2022/09/05 03:12:34;;;;;;;15.40;5.33;;;17.70;99.90;;;;;;5013421;28;20391;-66
2022/09/05 03:15:15;;;;;;;17.90;7.80;;;17.60;99.90;;;;;;5013533;28;20423;-67
2022/09/05 03:18:17;;;;;;;9.13;7.60;;;17.70;15.00;;;;;;5013145;28;20461;-66
2022/09/05 03:21:24;;;;;;;7.90;6.07;;;17.60;1.00;;;;;;5013358;28;21036;-65
2022/09/05 03:24:19;;;;;;;16.80;5.70;;;17.50;1.00;;;;;;4999138;28;20814;-66
2022/09/05 03:27:12;;;;;;;13.90;5.57;;;17.60;1.00;;;;;;5012999;28;20411;-65
2022/09/05 03:29:41;;;;;;;19.13;7.17;;;17.70;1.00;;;;;;5012759;28;20447;-67
2022/09/05 03:32:31;;;;;;;32.10;6.87;;;17.70;1.00;;;;;;5012707;28;20407;-67
2022/09/05 03:35:17;;;;;;;4.67;4.17;;;17.80;1.00;;;;;;5012737;28;20444;-67
2022/09/05 03:38:10;;;;;;;19.43;5.20;;;17.60;1.00;;;;;;5012645;28;20434;-67
2022/09/05 03:41:09;;;;;;;18.20;7.27;;;17.60;1.00;;;;;;5012574;28;20919;-68
2022/09/05 03:43:41;;;;;;;8.23;5.67;;;17.60;1.00;;;;;;5012702;28;20450;-66
2022/09/05 03:46:07;;;;;;;6.87;5.67;;;17.50;1.00;;;;;;5012570;28;20833;-65
2022/09/05 03:48:50;;;;;;;8.53;5.57;;;17.50;1.00;;;;;;5012160;28;20502;-67
2022/09/05 03:52:07;;;;;;;11.77;8.10;;;17.50;1.00;;;;;;5012626;28;20243;-65
2022/09/05 03:54:59;;;;;;;14.67;7.90;;;17.50;1.00;;;;;;4989619;28;20423;-67
2022/09/05 03:57:46;;;;;;;11.17;6.57;;;17.50;1.00;;;;;;5012255;28;20897;-67
2022/09/05 04:00:41;;;;;;;11.00;5.97;;;17.40;1.00;;;;;;5012315;28;20403;-66
2022/09/05 04:03:28;;;;;;;11.10;5.87;;;17.40;81.20;;;;;;5011121;28;20562;-67
2022/09/05 04:06:07;;;;;;;18.73;5.80;;;17.40;99.90;;;;;;5012268;28;20414;-65
2022/09/05 04:08:41;;;;;;;21.30;6.53;;;17.30;99.90;;;;;;5011871;28;20749;-67
2022/09/05 04:11:20;;;;;;;15.50;5.47;;;17.30;99.90;;;;;;5012215;28;20408;-67
2022/09/05 04:14:13;;;;;;;8.10;5.00;;;17.20;99.90;;;;;;5010713;28;20431;-66
2022/09/05 04:16:50;;;;;;;7.00;5.10;;;17.20;99.90;;;;;;4993744;28;20415;-66
2022/09/05 04:19:36;;;;;;;7.00;5.07;;;17.20;99.90;;;;;;5011625;28;20411;-66
2022/09/05 04:22:18;;;;;;;6.73;5.50;;;16.90;1.00;;;;;;5010127;28;20418;-65
2022/09/05 04:25:09;;;;;;;9.90;5.20;;;17.00;1.00;;;;;;5011821;28;21007;-67
2022/09/05 04:28:00;;;;;;;6.90;6.20;;;17.20;99.90;;;;;;5011588;28;20414;-65
2022/09/05 04:30:54;;;;;;;24.40;7.60;;;17.20;1.00;;;;;;5011487;28;20455;-66
2022/09/05 04:33:36;;;;;;;20.93;6.90;;;17.20;1.00;;;;;;5011663;28;20465;-65
2022/09/05 04:36:27;;;;;;;28.90;6.80;;;17.30;1.00;;;;;;5011696;28;20477;-67
2022/09/05 04:39:15;;;;;;;47.70;8.43;;;17.30;1.00;;;;;;5011387;28;20953;-64
2022/09/05 04:41:48;;;;;;;45.80;9.83;;;17.40;1.00;;;;;;5011493;28;20450;-67
2022/09/05 04:44:18;;;;;;;21.73;6.73;;;17.40;1.00;;;;;;5010220;28;20439;-68
2022/09/05 04:47:07;;;;;;;18.73;6.40;;;17.40;1.00;;;;;;5011666;28;20443;-67
2022/09/05 04:49:39;;;;;;;23.53;7.47;;;17.30;1.00;;;;;;5011406;28;20459;-67
2022/09/05 04:52:46;;;;;;;24.47;6.00;;;17.40;1.00;;;;;;5011221;28;20685;-65
2022/09/05 04:55:28;;;;;;;20.30;6.87;;;17.40;1.00;;;;;;5011417;28;20449;-62
2022/09/05 04:58:05;;;;;;;19.60;5.60;;;17.40;1.00;;;;;;5011246;28;20403;-65
2022/09/05 05:00:45;;;;;;;29.50;6.60;;;17.50;1.00;;;;;;5011222;28;20457;-65
2022/09/05 05:03:19;;;;;;;71.80;11.23;;;17.50;1.00;;;;;;5011291;28;20466;-66
2022/09/05 05:05:47;;;;;;;12.73;5.87;;;17.60;1.00;;;;;;5011441;28;20443;-63
2022/09/05 05:08:29;;;;;;;41.20;8.43;;;17.60;1.00;;;;;;5011035;28;20504;-65
2022/09/05 05:11:45;;;;;;;27.03;6.47;;;17.60;1.00;;;;;;5011102;28;20403;-65
2022/09/05 05:14:26;;;;;;;21.03;6.00;;;17.60;1.00;;;;;;4991672;28;20435;-62
2022/09/05 05:17:07;;;;;;;27.73;6.70;;;17.70;99.90;;;;;;5011364;28;20396;-65
2022/09/05 05:19:51;;;;;;;21.30;7.10;;;17.70;99.90;;;;;;5011996;28;20533;-63
2022/09/05 05:22:17;;;;;;;21.83;6.07;;;17.70;1.00;;;;;;5011381;28;20911;-64
2022/09/05 05:24:50;;;;;;;12.03;5.60;;;17.90;1.00;;;;;;5011198;28;20470;-64
2022/09/05 05:27:20;;;;;;;19.30;7.03;;;18.00;99.90;;;;;;5011154;28;20396;-64
2022/09/05 05:29:55;;;;;;;16.83;5.90;;;18.10;99.90;;;;;;5010934;28;20550;-65
2022/09/05 05:32:29;;;;;;;8.93;5.20;;;18.20;99.90;;;;;;5011424;28;20399;-64
2022/09/05 05:35:08;;;;;;;6.53;4.97;;;18.30;99.90;;;;;;5011128;28;20540;-64
2022/09/05 05:37:56;;;;;;;5.60;5.10;;;18.50;99.90;;;;;;5009577;28;20411;-63
2022/09/05 05:40:26;;;;;;;12.23;5.40;;;19.20;33.40;;;;;;5011070;28;20407;-63
2022/09/05 05:43:11;;;;;;;8.03;4.97;;;20.20;1.00;;;;;;5009855;28;20395;-65
2022/09/05 05:45:37;;;;;;;6.90;5.70;;;20.80;1.00;;;;;;5011064;28;20409;-64
2022/09/05 05:48:50;;;;;;;6.37;5.30;;;21.40;1.00;;;;;;5010777;28;20430;-64
2022/09/05 05:51:37;;;;;;;5.27;4.77;;;21.70;1.00;;;;;;5007216;28;20431;-63
2022/09/05 05:54:52;;;;;;;15.10;5.87;;;21.00;1.00;;;;;;5010886;28;20899;-64
2022/09/05 05:57:40;;;;;;;6.20;5.60;;;21.30;1.00;;;;;;5001974;28;20465;-64
2022/09/05 06:00:16;;;;;;;7.00;5.07;;;22.30;99.90;;;;;;5010713;28;20406;-65
2022/09/05 06:03:35;;;;;;;8.63;5.07;;;23.30;99.90;;;;;;5010957;28;20418;-65
2022/09/05 06:06:26;;;;;;;8.50;5.67;;;23.00;99.90;;;;;;4953813;28;20452;-64
2022/09/05 06:09:16;;;;;;;9.03;5.83;;;21.80;99.90;;;;;;5014277;28;20459;-62
2022/09/05 06:11:58;;;;;;;7.53;5.80;;;21.30;99.90;;;;;;5014576;28;20479;-63
2022/09/05 06:14:34;;;;;;;13.57;7.17;;;20.80;99.90;;;;;;5014700;28;20430;-64
2022/09/05 06:17:12;;;;;;;8.90;5.97;;;20.40;99.90;;;;;;5014446;28;20409;-64
2022/09/05 06:20:36;;;;;;;15.27;7.37;;;20.20;1.00;;;;;;5014152;28;20402;-65
2022/09/05 06:23:08;;;;;;;33.87;9.90;;;20.10;1.00;;;;;;4991617;28;20426;-64
2022/09/05 06:25:42;;;;;;;7.87;6.10;;;20.50;1.00;;;;;;5013977;28;20407;-66
2022/09/05 06:28:44;;;;;;;9.33;6.30;;;21.00;1.00;;;;;;5014114;28;20499;-65
2022/09/05 06:31:09;;;;;;;6.53;5.90;;;21.40;99.90;;;;;;4973323;28;20431;-65
2022/09/05 06:34:19;;;;;;;6.23;5.70;;;21.50;99.90;;;;;;5005050;28;20550;-63
2022/09/05 06:37:02;;;;;;;6.97;6.27;;;21.50;99.90;;;;;;5003244;28;20176;-65
2022/09/05 06:39:33;;;;;;;7.57;6.20;;;21.50;99.90;;;;;;5013651;28;20413;-64
2022/09/05 06:42:44;;;;;;;7.90;6.77;;;21.30;99.90;;;;;;5013729;28;20502;-63
2022/09/05 06:45:34;;;;;;;19.40;7.23;;;21.30;99.90;;;;;;4972335;28;20522;-62
2022/09/05 06:48:26;;;;;;;7.80;6.47;;;21.50;99.90;;;;;;5013271;28;20791;-64
2022/09/05 06:51:17;;;;;;;6.67;6.07;;;21.90;99.90;;;;;;5012458;28;20498;-65
2022/09/05 06:54:01;;;;;;;9.90;7.17;;;22.20;99.90;;;;;;5013415;28;20948;-65
2022/09/05 06:56:27;;;;;;;7.00;6.40;;;22.70;99.90;;;;;;5013679;28;20780;-64
2022/09/05 06:59:02;;;;;;;7.83;7.10;;;23.10;99.90;;;;;;5011842;28;20407;-65
2022/09/05 07:01:34;;;;;;;7.63;6.93;;;22.90;99.90;;;;;;5013575;28;20179;-62
2022/09/05 07:04:22;;;;;;;7.00;6.20;;;22.20;99.90;;;;;;5012318;28;20474;-62
2022/09/05 07:07:08;;;;;;;10.47;6.70;;;22.40;99.90;;;;;;5013571;28;20477;-62
2022/09/05 07:09:46;;;;;;;8.93;7.60;;;22.40;99.90;;;;;;5013430;28;21019;-61
2022/09/05 07:12:25;;;;;;;8.03;7.23;;;22.50;99.90;;;;;;5013734;28;20408;-64
2022/09/05 07:15:03;;;;;;;8.70;6.77;;;22.70;99.90;;;;;;5012915;28;20477;-63
2022/09/05 07:18:01;;;;;;;6.97;6.30;;;23.00;99.90;;;;;;5013596;28;20399;-65
2022/09/05 07:20:46;;;;;;;7.90;6.67;;;23.50;99.90;;;;;;4992705;28;20494;-65
2022/09/05 07:23:43;;;;;;;8.70;7.80;;;23.30;99.90;;;;;;5013257;28;20462;-62
2022/09/05 07:26:10;;;;;;;11.30;8.63;;;23.40;99.90;;;;;;5013360;28;20486;-64
2022/09/05 07:28:42;;;;;;;15.70;10.67;;;23.70;99.90;;;;;;5011545;28;20499;-65
2022/09/05 07:31:16;;;;;;;16.43;11.73;;;23.50;99.90;;;;;;5013080;28;20403;-63
2022/09/05 07:33:44;;;;;;;26.60;10.67;;;23.70;99.90;;;;;;5012669;28;20451;-64
2022/09/05 07:36:19;;;;;;;13.10;10.63;;;23.80;99.90;;;;;;5012915;28;20416;-63
2022/09/05 07:38:49;;;;;;;31.00;12.97;;;23.80;99.90;;;;;;5012847;28;20414;-65
2022/09/05 07:41:50;;;;;;;24.07;21.60;;;23.90;99.90;;;;;;5012730;28;21218;-64
2022/09/05 07:44:37;;;;;;;30.77;19.20;;;23.40;99.90;;;;;;5005276;28;20866;-65
2022/09/05 07:47:11;;;;;;;19.77;17.67;;;23.70;99.90;;;;;;5012582;28;20461;-63
2022/09/05 07:49:39;;;;;;;17.00;15.23;;;23.80;99.90;;;;;;5012383;28;20852;-64
2022/09/05 07:52:20;;;;;;;25.63;23.50;;;23.60;99.90;;;;;;5012605;28;20407;-64
2022/09/05 07:54:50;;;;;;;26.90;24.50;;;23.00;99.90;;;;;;5012220;28;20433;-63
2022/09/05 07:57:40;;;;;;;21.73;19.77;;;22.90;99.90;;;;;;5012588;28;20403;-64
2022/09/05 08:00:18;;;;;;;20.17;16.47;;;23.70;99.90;;;;;;5012761;28;20499;-64
2022/09/05 08:02:45;;;;;;;13.93;10.47;;;23.90;99.90;;;;;;5012461;28;20775;-62
2022/09/05 08:05:15;;;;;;;16.90;15.40;;;24.10;99.90;;;;;;5012791;28;20404;-64
2022/09/05 08:07:45;;;;;;;12.40;11.40;;;24.40;99.90;;;;;;5012128;28;20546;-66
2022/09/05 08:10:19;;;;;;;14.03;12.70;;;24.10;99.90;;;;;;5012064;28;20502;-66
2022/09/05 08:13:13;;;;;;;14.37;13.07;;;24.50;99.90;;;;;;5012151;28;20476;-62
2022/09/05 08:15:45;;;;;;;11.47;10.50;;;24.00;99.90;;;;;;5010616;28;20422;-64
2022/09/05 08:18:35;;;;;;;9.07;8.20;;;23.20;99.90;;;;;;5011999;28;20411;-63
2022/09/05 08:21:33;;;;;;;27.37;10.03;;;23.40;99.90;;;;;;5012771;28;20461;-63
2022/09/05 08:24:35;;;;;;;26.70;13.23;;;24.00;99.90;;;;;;5003059;28;20447;-63
2022/09/05 08:27:11;;;;;;;15.03;9.80;;;24.00;99.90;;;;;;4989659;28;20410;-66
2022/09/05 08:29:39;;;;;;;10.10;8.50;;;23.90;99.90;;;;;;5010633;28;20952;-64
2022/09/05 08:32:12;;;;;;;7.93;6.67;;;23.90;99.90;;;;;;5011979;28;20469;-61
2022/09/05 08:34:42;;;;;;;8.23;6.37;;;23.80;99.90;;;;;;5045620;23;20579;-69
2022/09/05 08:37:11;;;;;;;7.40;6.07;;;24.10;99.90;;;;;;5031684;28;20910;-67
2022/09/05 08:39:40;;;;;;;8.50;7.60;;;24.70;99.90;;;;;;5031377;28;20405;-68
2022/09/05 08:42:27;;;;;;;9.77;8.33;;;24.50;99.90;;;;;;5031743;28;20401;-68
2022/09/05 08:45:09;;;;;;;12.80;7.33;;;24.40;99.90;;;;;;5032606;28;20610;-67
2022/09/05 08:47:59;;;;;;;11.33;9.00;;;24.40;99.90;;;;;;5031459;28;20409;-68
2022/09/05 08:50:38;;;;;;;9.03;7.27;;;24.40;99.90;;;;;;5031742;28;20615;-69
2022/09/05 08:53:16;;;;;;;13.97;7.47;;;24.00;99.90;;;;;;5031456;28;20954;-67
2022/09/05 08:56:00;;;;;;;27.33;9.80;;;24.10;99.90;;;;;;5031511;28;20410;-67
2022/09/05 08:58:25;;;;;;;32.67;11.83;;;24.70;99.90;;;;;;5031284;28;20757;-67
2022/09/05 09:01:04;;;;;;;10.53;9.27;;;25.10;99.90;;;;;;5031555;28;20417;-68
2022/09/05 09:04:27;;;;;;;10.70;9.70;;;25.40;99.90;;;;;;5031555;28;20643;-68
2022/09/05 09:07:29;;;;;;;12.87;8.00;;;25.50;99.90;;;;;;5009228;28;20450;-67
2022/09/05 09:10:03;;;;;;;10.87;9.20;;;25.90;99.90;;;;;;5009040;28;20458;-68
2022/09/05 09:12:34;;;;;;;10.93;10.03;;;25.60;99.90;;;;;;5028749;28;20497;-68
2022/09/05 09:15:10;;;;;;;16.53;10.40;;;25.30;99.90;;;;;;5031152;28;20422;-69
2022/09/05 09:17:48;;;;;;;14.23;11.00;;;25.30;99.90;;;;;;5030732;28;20434;-68
2022/09/05 09:20:32;;;;;;;11.10;9.30;;;25.70;99.90;;;;;;5030759;28;20414;-68
2022/09/05 09:23:50;;;;;;;13.50;12.27;;;25.90;99.90;;;;;;5031131;28;20411;-68
2022/09/05 09:26:21;;;;;;;17.30;10.47;;;25.60;99.90;;;;;;5022255;28;20413;-67
2022/09/05 09:29:02;;;;;;;13.40;9.30;;;25.90;99.90;;;;;;5030610;28;20515;-68
2022/09/05 09:31:46;;;;;;;10.60;8.20;;;26.00;99.90;;;;;;5031240;28;20821;-68
2022/09/05 09:34:31;;;;;;;13.70;8.70;;;25.70;99.90;;;;;;5030968;28;20442;-68
2022/09/05 09:37:09;;;;;;;9.53;8.43;;;24.90;99.90;;;;;;5030808;28;20398;-68
2022/09/05 09:39:50;;;;;;;33.73;11.03;;;24.80;99.90;;;;;;5030904;28;20395;-68
2022/09/05 09:42:36;;;;;;;13.37;7.33;;;25.10;99.90;;;;;;5030832;28;20410;-68
2022/09/05 09:45:08;;;;;;;15.47;7.80;;;25.10;99.90;;;;;;5030714;28;20524;-68
2022/09/05 09:48:03;;;;;;;7.00;6.30;;;25.50;99.90;;;;;;5030781;28;20403;-68
2022/09/05 09:50:47;;;;;;;14.70;9.10;;;25.40;99.90;;;;;;5029636;28;20476;-68
2022/09/05 09:53:42;;;;;;;8.47;6.97;;;25.30;99.90;;;;;;5030244;28;20406;-68
2022/09/05 09:56:13;;;;;;;14.83;6.53;;;25.60;99.90;;;;;;5030633;28;20402;-68
2022/09/05 09:58:45;;;;;;;8.20;6.10;;;25.70;99.90;;;;;;5030241;28;20460;-69
2022/09/05 10:01:20;;;;;;;9.10;7.20;;;26.00;99.90;;;;;;5030433;28;20471;-66
2022/09/05 10:04:02;;;;;;;10.27;6.63;;;25.70;99.90;;;;;;5030075;28;20417;-67
2022/09/05 10:06:52;;;;;;;8.33;6.53;;;25.60;99.90;;;;;;5030406;28;20398;-69
2022/09/05 10:09:36;;;;;;;20.10;5.80;;;26.00;99.90;;;;;;5030306;28;20567;-68
2022/09/05 10:12:22;;;;;;;7.30;4.60;;;26.40;99.90;;;;;;5030318;28;20448;-67
2022/09/05 10:14:59;;;;;;;11.70;4.97;;;26.70;99.90;;;;;;5030483;28;20415;-67
2022/09/05 10:17:38;;;;;;;4.80;4.40;;;27.00;99.90;;;;;;5030036;28;20737;-67
2022/09/05 10:20:19;;;;;;;19.67;7.80;;;27.10;99.90;;;;;;5030472;28;20406;-66
2022/09/05 10:22:57;;;;;;;8.73;6.10;;;26.70;99.90;;;;;;5030308;28;20434;-66
2022/09/05 10:25:56;;;;;;;13.90;6.43;;;26.40;99.90;;;;;;5030355;28;20426;-68
2022/09/05 10:28:41;;;;;;;9.50;5.40;;;26.10;99.90;;;;;;5030136;28;20544;-68
2022/09/05 10:31:26;;;;;;;27.57;7.00;;;26.40;99.90;;;;;;5030278;28;20445;-66
2022/09/05 10:34:09;;;;;;;11.10;4.23;;;26.80;99.90;;;;;;5029662;28;20461;-65
2022/09/05 10:36:37;;;;;;;10.40;4.53;;;26.90;99.90;;;;;;5030347;28;20993;-66
2022/09/05 10:39:26;;;;;;;7.50;3.70;;;26.70;99.90;;;;;;5029803;28;20410;-66
2022/09/05 10:42:09;;;;;;;11.43;4.60;;;26.60;99.90;;;;;;5030115;28;20401;-66
2022/09/05 10:44:39;;;;;;;9.40;4.60;;;26.50;99.90;;;;;;5030312;28;20442;-67
2022/09/05 10:47:39;;;;;;;10.53;4.43;;;26.10;99.90;;;;;;5029936;28;20414;-68
2022/09/05 10:50:26;;;;;;;6.77;3.60;;;26.20;99.90;;;;;;5032649;28;20532;-66
2022/09/05 10:52:58;;;;;;;8.77;4.57;;;26.10;99.90;;;;;;5033632;28;20444;-66
2022/09/05 10:55:35;;;;;;;8.57;4.07;;;26.20;99.90;;;;;;5033602;28;20406;-67
2022/09/05 10:58:42;;;;;;;8.00;4.60;;;26.30;99.90;;;;;;5033714;28;20749;-67
2022/09/05 11:01:28;;;;;;;6.30;3.87;;;26.00;99.90;;;;;;5033585;28;20784;-67
2022/09/05 11:04:03;;;;;;;9.30;4.73;;;26.00;99.90;;;;;;5022438;28;20793;-67
2022/09/05 11:06:43;;;;;;;14.20;5.10;;;26.00;99.90;;;;;;5033419;28;20707;-67
2022/09/05 11:09:34;;;;;;;3.50;3.20;;;26.30;99.90;;;;;;5033325;28;20445;-67
2022/09/05 11:12:03;;;;;;;5.90;3.60;;;26.40;99.90;;;;;;5033572;28;20815;-68
2022/09/05 11:14:52;;;;;;;17.10;4.60;;;26.70;99.90;;;;;;5033230;28;20432;-67
2022/09/05 11:17:52;;;;;;;8.57;4.93;;;26.90;99.90;;;;;;5033023;28;20404;-68
2022/09/05 11:21:15;;;;;;;17.17;4.73;;;27.20;99.90;;;;;;5028850;28;20521;-68
2022/09/05 11:23:45;;;;;;;14.83;4.90;;;27.20;99.90;;;;;;5010529;28;20439;-67
2022/09/05 11:26:34;;;;;;;16.97;6.17;;;27.20;99.90;;;;;;5010907;28;20407;-67
2022/09/05 11:29:06;;;;;;;4.13;3.73;;;27.10;99.90;;;;;;5010444;28;20549;-67
2022/09/05 11:32:16;;;;;;;9.47;3.40;;;26.80;99.90;;;;;;5010946;28;20410;-68
2022/09/05 11:35:11;;;;;;;21.07;5.60;;;26.90;99.90;;;;;;4974543;28;20578;-67
2022/09/05 11:37:49;;;;;;;4.27;3.87;;;27.20;99.90;;;;;;5010580;28;20423;-68
2022/09/05 11:40:39;;;;;;;5.13;4.07;;;27.00;99.90;;;;;;5010430;28;20410;-67
2022/09/05 11:43:24;;;;;;;8.37;4.33;;;27.00;99.90;;;;;;5010889;28;20411;-68
2022/09/05 11:46:18;;;;;;;11.60;4.50;;;27.10;99.90;;;;;;5010932;28;20832;-67
2022/09/05 11:49:12;;;;;;;7.43;4.63;;;26.90;99.90;;;;;;5010252;28;20439;-68
2022/09/05 11:52:06;;;;;;;7.13;4.43;;;26.70;99.90;;;;;;5010319;28;20498;-67
2022/09/05 11:55:03;;;;;;;10.97;4.63;;;26.60;99.90;;;;;;5024907;28;20764;-68
2022/09/05 11:57:46;;;;;;;6.40;4.47;;;26.90;99.90;;;;;;5032538;28;20405;-68
2022/09/05 12:00:53;;;;;;;14.60;5.13;;;27.00;99.90;;;;;;5032195;28;20417;-68
2022/09/05 12:03:31;;;;;;;4.30;3.90;;;27.20;99.90;;;;;;5009876;28;20414;-68
2022/09/05 12:06:31;;;;;;;8.60;4.60;;;27.10;99.90;;;;;;5029022;28;20934;-67
2022/09/05 12:09:25;;;;;;;11.50;4.73;;;27.30;99.90;;;;;;5031978;28;20453;-66
2022/09/05 12:12:26;;;;;;;4.50;4.10;;;27.40;99.90;;;;;;5032597;28;20421;-67
2022/09/05 12:15:01;;;;;;;6.73;4.73;;;27.10;99.90;;;;;;5029145;28;20437;-66
2022/09/05 12:17:33;;;;;;;12.73;4.60;;;27.10;99.90;;;;;;5032369;28;20618;-67
2022/09/05 12:20:13;;;;;;;9.90;4.30;;;27.20;99.90;;;;;;5032291;28;20430;-67
2022/09/05 12:23:03;;;;;;;4.57;4.13;;;27.20;99.90;;;;;;5032171;28;20500;-67
2022/09/05 12:25:49;;;;;;;6.17;3.67;;;26.90;99.90;;;;;;5031920;28;20516;-67
2022/09/05 12:28:37;;;;;;;5.43;4.30;;;27.00;99.90;;;;;;5032510;28;20417;-68
2022/09/05 12:31:34;;;;;;;7.10;3.80;;;27.10;99.90;;;;;;5033669;28;20437;-68
2022/09/05 12:34:02;;;;;;;7.57;4.00;;;27.00;99.90;;;;;;5032217;28;20973;-66
2022/09/05 12:36:54;;;;;;;13.23;4.27;;;27.00;99.90;;;;;;5031742;28;20505;-65
2022/09/05 12:39:34;;;;;;;16.17;4.37;;;27.00;99.90;;;;;;5025870;28;20495;-66
2022/09/05 12:42:18;;;;;;;44.23;7.70;;;26.90;99.90;;;;;;5031691;28;20409;-66
2022/09/05 12:45:07;;;;;;;24.03;5.20;;;26.80;99.90;;;;;;5030589;28;20640;-67
2022/09/05 12:47:54;;;;;;;5.43;4.43;;;26.80;99.90;;;;;;5031684;28;20859;-67
2022/09/05 12:50:31;;;;;;;13.87;4.40;;;26.90;99.90;;;;;;5031605;28;21015;-66
2022/09/05 12:53:21;;;;;;;10.30;4.30;;;27.00;99.90;;;;;;5032111;28;20430;-66
2022/09/05 12:55:51;;;;;;;12.40;3.93;;;27.20;99.90;;;;;;5029452;28;20449;-67
2022/09/05 12:58:34;;;;;;;4.63;3.80;;;27.30;99.90;;;;;;5033546;28;20913;-68
2022/09/05 13:01:05;;;;;;;4.77;4.27;;;27.40;99.90;;;;;;5034362;28;20895;-69
2022/09/05 13:03:36;;;;;;;5.53;3.70;;;27.30;99.90;;;;;;5031127;28;20441;-70
2022/09/05 13:06:29;;;;;;;4.00;3.40;;;27.40;99.90;;;;;;5031057;28;20418;-68
2022/09/05 13:09:09;;;;;;;14.40;5.03;;;27.40;99.90;;;;;;5027955;28;20468;-68
2022/09/05 13:12:08;;;;;;;46.53;7.10;;;27.40;99.90;;;;;;5030160;28;20405;-69
2022/09/05 13:14:52;;;;;;;15.83;4.33;;;27.40;99.90;;;;;;5028899;28;20960;-68
2022/09/05 13:17:29;;;;;;;7.83;3.03;;;27.40;99.90;;;;;;5030639;28;20428;-68
2022/09/05 13:19:57;;;;;;;9.00;3.67;;;27.40;99.90;;;;;;5030819;28;20413;-66
2022/09/05 13:22:25;;;;;;;10.50;4.50;;;27.20;99.90;;;;;;5030817;28;20869;-67
2022/09/05 13:25:08;;;;;;;4.03;3.40;;;26.90;99.90;;;;;;5030901;28;20553;-68
2022/09/05 13:27:41;;;;;;;3.33;3.03;;;27.20;99.90;;;;;;5030702;28;20405;-68
2022/09/05 13:30:12;;;;;;;3.83;3.20;;;27.30;99.90;;;;;;5030545;28;20454;-68
2022/09/05 13:32:45;;;;;;;7.67;4.10;;;27.50;99.90;;;;;;5030653;28;20453;-67
2022/09/05 13:35:27;;;;;;;5.10;3.60;;;27.60;99.90;;;;;;5030411;28;20446;-68
2022/09/05 13:38:13;;;;;;;19.97;4.57;;;27.50;99.90;;;;;;5030631;28;20398;-67
2022/09/05 13:40:44;;;;;;;24.50;5.90;;;27.60;99.90;;;;;;5030814;28;20402;-68
2022/09/05 13:43:20;;;;;;;4.73;4.27;;;27.80;99.90;;;;;;5030453;28;20436;-68
2022/09/05 13:46:09;;;;;;;4.50;4.07;;;27.60;99.90;;;;;;5030628;28;20437;-68
2022/09/05 13:49:02;;;;;;;4.80;4.10;;;27.60;99.90;;;;;;5030010;28;20934;-68
2022/09/05 13:51:35;;;;;;;4.67;3.47;;;27.60;99.90;;;;;;5030416;28;20816;-67
2022/09/05 13:54:35;;;;;;;9.40;3.87;;;27.40;99.90;;;;;;5030413;28;20429;-67
2022/09/05 13:57:22;;;;;;;3.80;3.50;;;27.40;99.90;;;;;;5030329;28;20950;-67
2022/09/05 14:00:14;;;;;;;9.07;4.10;;;27.40;99.90;;;;;;5030214;28;20945;-67
2022/09/05 14:03:26;;;;;;;5.70;3.70;;;27.20;99.90;;;;;;5030276;28;20393;-66
2022/09/05 14:05:55;;;;;;;3.57;3.20;;;27.20;99.90;;;;;;5030389;28;20401;-67